Lihue, HI

7:58 PM HST on September 17, 2014 (GMT -1000)
Lihue | Change Station
CLOSE
Current Station
Airport
Location: Lihue,
Elevation: 102 ft
Nearby Weather Stations

Elev 102 ft 21.98 °N, 159.34 °W | Updated 1 hour ago

Scattered Clouds
Scattered Clouds
80 °F
Feels Like 84 °F
N
12
Wind Variable Wind from NE

Today
High -- | Low -- °F
--% Chance of Precip.
Yesterday
High -- | Low -- °F
Precip. -- in
6:24 AM 6:38 PM
Waning Crescent, 30% visible
Pressure 29.95 in
Visibility 10.0 miles
Clouds Few 2200 ft
Scattered Clouds 7000 ft
Heat Index 84 °F
Dew Point 71 °F
Humidity 74%
Rainfall 0.00 in
Snow Depth Not available.
UV 0 out of 12
Pollen Not available.
Air Quality Not available.
Flu Activity Not available.
METAR PHLI 180453Z 05010KT 10SM FEW022 SCT070 27/22 A2995 RMK AO2 SLP140 T02670217

More Conditions Fewer Conditions

Pressure 29.95 in
Visibility 10.0 miles
Clouds Few 2200 ft
Scattered Clouds 7000 ft
Heat Index 84 °F
Dew Point 71 °F
Humidity 74%
Rainfall 0.00 in
Snow Depth Not available.
UV 0 out of 12
Pollen Not available.
Air Quality Not available.
Flu Activity Not available.
METAR PHLI 180453Z 05010KT 10SM FEW022 SCT070 27/22 A2995 RMK AO2 SLP140 T02670217

More Conditions Fewer Conditions

10-Day Weather Forecast

Almanac

Astronomy

Sep. 17, 2014 Rise Set
Actual Time 6:24 AM HST 6:38 PM HST
Civil Twilight 6:02 AM HST 7:00 PM HST
Nautical Twilight 5:36 AM HST 7:26 PM HST
Astronomical Twilight 5:10 AM HST 7:52 PM HST
Moon 1:04 AM HST (9/17) 2:28 PM HST (9/17)
Length of Visible Light 12h 58m
Length of Day
12h 13m
Tomorrow will be 1m 14s shorter.
Waning Crescent, 30% of the Moon is Illuminated
Sep 18
Waning Crescent
Sep 24
New
Oct 1
First Quarter
Oct 8
Full
Oct 15
Last Quarter

Yesterday's Extremes

State Highs State Lows

Community

WunderPhotos

Upload Photos

1,754,292 photos uploaded!

Nearby

Snow Depth

Station Depth Elevation
No new snow has been reported.

Earthquake Activity

City Distance Mag. Time & Date
No recent earthquake activity has been reported nearby.
Minimum magnitude displayed is 2.5.

Coastal Water Temperatures

Place Temperature
No Stations Reporting

Nearby Weather Stations